Back to Top

Language: 

My Weather Underground Personal Weather Station Historical Data with Graphs...

Delerius Weather Station Historical Data
Daily Summary for August 10, 2017 Units:  English    Metric   Both
« Previous Day
Next Day »
Daily Weekly Monthly Yearly Custom
  High: Low: Average:
Temperature: 73.0 °F 45.7 °F 59.3 °F
Dew Point: 54.4 °F 44.2 °F 49.8 °F
Humidity: 97 % 46 % 73 %
Wind Speed: 9.0 mph 0.0 mph 3 mph
Wind Gust: 16.0 mph - -
Wind:- - WSW
Pressure: 30.27 in 30.16 in -
Precipitation: 0.00 in    
Historical Graphs
 
 
Tabular Data for August 10, 2017
Time Temperature Dew Point Pressure Wind Wind Speed Wind Gust Humidity Rainfall Rate (Hourly) solar Conditions
00:04 48.9 °F 46.1 °F 30.24 in Calm     90 % 0.00 in 0 W/m2
00:09 48.7 °F 45.9 °F 30.25 in Calm     90 % 0.00 in 0 W/m2
00:14 48.7 °F 46.2 °F 30.25 in Calm   1.0 mph 91 % 0.00 in 0 W/m2
00:19 48.7 °F 46.2 °F 30.25 in Calm   2.0 mph 91 % 0.00 in 0 W/m2
00:24 48.6 °F 46.1 °F 30.25 in Calm   2.0 mph 91 % 0.00 in 0 W/m2
00:29 48.6 °F 46.1 °F 30.25 in NNE 1.0 mph 4.0 mph 91 % 0.00 in 0 W/m2
00:34 48.6 °F 46.3 °F 30.25 in NNE 2.0 mph 5.0 mph 92 % 0.00 in 0 W/m2
00:39 48.6 °F 46.3 °F 30.25 in NNE 1.0 mph 5.0 mph 92 % 0.00 in 0 W/m2
00:44 48.6 °F 46.3 °F 30.25 in Calm   1.0 mph 92 % 0.00 in 0 W/m2
00:49 48.6 °F 46.3 °F 30.25 in Calm   2.0 mph 92 % 0.00 in 0 W/m2
00:54 48.4 °F 46.2 °F 30.25 in Calm   2.0 mph 92 % 0.00 in 0 W/m2
00:59 48.4 °F 46.2 °F 30.25 in Calm   2.0 mph 92 % 0.00 in 0 W/m2
01:04 48.2 °F 46.0 °F 30.25 in Calm   2.0 mph 92 % 0.00 in 0 W/m2
01:09 48.0 °F 45.8 °F 30.25 in Calm   2.0 mph 92 % 0.00 in 0 W/m2
01:14 48.0 °F 45.8 °F 30.25 in Calm   1.0 mph 92 % 0.00 in 0 W/m2
01:19 47.8 °F 45.6 °F 30.25 in Calm   1.0 mph 92 % 0.00 in 0 W/m2
01:24 47.7 °F 45.5 °F 30.25 in Calm     92 % 0.00 in 0 W/m2
01:29 47.5 °F 45.3 °F 30.25 in Calm     92 % 0.00 in 0 W/m2
01:34 47.3 °F 45.1 °F 30.25 in Calm     92 % 0.00 in 0 W/m2
01:39 47.1 °F 44.9 °F 30.25 in Calm     92 % 0.00 in 0 W/m2
01:44 46.9 °F 44.7 °F 30.25 in Calm     92 % 0.00 in 0 W/m2
01:49 46.9 °F 45.0 °F 30.26 in Calm     93 % 0.00 in 0 W/m2
01:54 46.8 °F 44.8 °F 30.26 in Calm     93 % 0.00 in 0 W/m2
01:59 46.6 °F 44.7 °F 30.26 in Calm     93 % 0.00 in 0 W/m2
02:04 46.6 °F 44.7 °F 30.26 in Calm     93 % 0.00 in 0 W/m2
02:09 46.4 °F 44.5 °F 30.26 in Calm   2.0 mph 93 % 0.00 in 0 W/m2
02:10 46.4 °F 44.5 °F 30.26 in Calm   2.0 mph 93 % 0.00 in 0 W/m2
02:15 46.4 °F 44.5 °F 30.26 in Calm   2.0 mph 93 % 0.00 in 0 W/m2
02:20 46.6 °F 44.9 °F 30.26 in Calm   2.0 mph 94 % 0.00 in 0 W/m2
02:25 46.6 °F 44.9 °F 30.26 in Calm   2.0 mph 94 % 0.00 in 0 W/m2
02:30 46.6 °F 44.9 °F 30.26 in Calm   2.0 mph 94 % 0.00 in 0 W/m2
02:35 46.6 °F 44.9 °F 30.26 in Calm     94 % 0.00 in 0 W/m2
02:40 46.6 °F 44.9 °F 30.26 in Calm     94 % 0.00 in 0 W/m2
02:45 46.6 °F 44.9 °F 30.26 in Calm     94 % 0.00 in 0 W/m2
02:50 46.4 °F 44.8 °F 30.26 in Calm   2.0 mph 94 % 0.00 in 0 W/m2
02:55 46.2 °F 44.6 °F 30.26 in Calm   2.0 mph 94 % 0.00 in 0 W/m2
03:00 46.0 °F 44.4 °F 30.27 in Calm     94 % 0.00 in 0 W/m2
03:05 46.0 °F 44.4 °F 30.27 in Calm     94 % 0.00 in 0 W/m2
03:10 46.0 °F 44.4 °F 30.26 in Calm     94 % 0.00 in 0 W/m2
03:15 46.0 °F 44.4 °F 30.26 in Calm     94 % 0.00 in 0 W/m2
03:20 46.0 °F 44.7 °F 30.26 in Calm     95 % 0.00 in 0 W/m2
03:25 46.0 °F 44.7 °F 30.26 in Calm     95 % 0.00 in 0 W/m2
03:31 45.9 °F 44.2 °F 30.26 in Calm     94 % 0.00 in 0 W/m2
03:36 45.9 °F 44.2 °F 30.26 in Calm     94 % 0.00 in 0 W/m2
03:41 45.7 °F 44.3 °F 30.26 in Calm     95 % 0.00 in 0 W/m2
03:46 45.7 °F 44.3 °F 30.26 in Calm     95 % 0.00 in 0 W/m2
03:51 45.7 °F 44.3 °F 30.26 in Calm     95 % 0.00 in 0 W/m2
03:56 45.7 °F 44.3 °F 30.26 in Calm     95 % 0.00 in 0 W/m2
03:57 45.7 °F 44.3 °F 30.26 in Calm     95 % 0.00 in 0 W/m2
04:02 45.7 °F 44.3 °F 30.26 in NNE 1.0 mph 5.0 mph 95 % 0.00 in 0 W/m2
04:07 45.9 °F 44.5 °F 30.26 in NNE 1.0 mph 5.0 mph 95 % 0.00 in 0 W/m2
04:12 46.0 °F 44.7 °F 30.26 in NNE 1.0 mph 3.0 mph 95 % 0.00 in 0 W/m2
04:17 46.0 °F 44.7 °F 30.26 in NNE 1.0 mph 3.0 mph 95 % 0.00 in 0 W/m2
04:23 46.0 °F 44.7 °F 30.26 in Calm   4.0 mph 95 % 0.00 in 0 W/m2
04:24 46.2 °F 44.9 °F 30.26 in Calm   4.0 mph 95 % 0.00 in 0 W/m2
04:27 46.2 °F 44.9 °F 30.26 in Calm   4.0 mph 95 % 0.00 in 0 W/m2
04:34 46.2 °F 44.9 °F 30.26 in Calm     95 % 0.00 in 0 W/m2
04:37 46.2 °F 44.9 °F 30.26 in Calm     95 % 0.00 in 0 W/m2
04:42 46.2 °F 44.9 °F 30.26 in Calm   1.0 mph 95 % 0.00 in 0 W/m2
04:47 46.2 °F 44.9 °F 30.26 in Calm   1.0 mph 95 % 0.00 in 0 W/m2
04:52 46.4 °F 45.0 °F 30.26 in Calm   1.0 mph 95 % 0.00 in 0 W/m2
04:57 46.4 °F 45.0 °F 30.26 in Calm   1.0 mph 95 % 0.00 in 0 W/m2
05:02 46.6 °F 45.5 °F 30.26 in Calm     96 % 0.00 in 0 W/m2
05:07 46.8 °F 45.7 °F 30.26 in Calm     96 % 0.00 in 0 W/m2
05:12 46.8 °F 45.7 °F 30.25 in Calm     96 % 0.00 in 0 W/m2
05:17 46.9 °F 45.9 °F 30.26 in Calm     96 % 0.00 in 0 W/m2
05:22 47.1 °F 46.0 °F 30.26 in Calm     96 % 0.00 in 0 W/m2
05:27 47.5 °F 46.4 °F 30.26 in Calm     96 % 0.00 in 0 W/m2
05:32 47.5 °F 46.4 °F 30.26 in Calm     96 % 0.00 in 0 W/m2
05:37 47.5 °F 46.4 °F 30.26 in Calm     96 % 0.00 in 5 W/m2
05:42 47.7 °F 46.6 °F 30.26 in Calm     96 % 0.00 in 7 W/m2
05:47 47.8 °F 46.8 °F 30.26 in Calm     96 % 0.00 in 11 W/m2
05:52 48.0 °F 46.9 °F 30.26 in Calm     96 % 0.00 in 14 W/m2
05:57 48.0 °F 46.9 °F 30.26 in Calm   1.0 mph 96 % 0.00 in 18 W/m2
06:02 48.2 °F 47.1 °F 30.26 in Calm   2.0 mph 96 % 0.00 in 19 W/m2
06:07 48.4 °F 47.3 °F 30.25 in Calm   2.0 mph 96 % 0.00 in 23 W/m2
06:12 48.4 °F 47.3 °F 30.25 in Calm     96 % 0.00 in 18 W/m2
06:17 48.4 °F 47.3 °F 30.26 in Calm   2.0 mph 96 % 0.00 in 19 W/m2
06:22 48.4 °F 47.3 °F 30.26 in Calm   2.0 mph 96 % 0.00 in 19 W/m2
06:27 48.4 °F 47.3 °F 30.26 in Calm     96 % 0.00 in 21 W/m2
06:32 48.4 °F 47.3 °F 30.26 in Calm     96 % 0.00 in 58 W/m2
06:37 48.6 °F 47.5 °F 30.26 in Calm     96 % 0.00 in 90 W/m2
06:42 48.7 °F 47.7 °F 30.26 in Calm     96 % 0.00 in 104 W/m2
06:47 49.3 °F 48.5 °F 30.26 in Calm     97 % 0.00 in 114 W/m2
06:52 49.8 °F 49.0 °F 30.26 in Calm     97 % 0.00 in 125 W/m2
06:57 50.0 °F 48.9 °F 30.26 in Calm     96 % 0.00 in 132 W/m2
07:02 50.4 °F 49.3 °F 30.26 in Calm     96 % 0.00 in 74 W/m2
07:07 50.5 °F 49.4 °F 30.26 in Calm     96 % 0.00 in 146 W/m2
07:12 50.9 °F 49.5 °F 30.26 in Calm     95 % 0.00 in 169 W/m2
07:17 51.3 °F 50.2 °F 30.27 in Calm     96 % 0.00 in 179 W/m2
07:22 51.8 °F 50.7 °F 30.27 in Calm     96 % 0.00 in 193 W/m2
07:27 52.2 °F 50.8 °F 30.27 in Calm     95 % 0.00 in 207 W/m2
07:32 53.1 °F 52.0 °F 30.27 in Calm   1.0 mph 96 % 0.00 in 220 W/m2
07:37 53.8 °F 52.4 °F 30.27 in Calm   1.0 mph 95 % 0.00 in 232 W/m2
07:42 54.9 °F 53.2 °F 30.27 in Calm     94 % 0.00 in 248 W/m2
07:48 55.6 °F 53.3 °F 30.27 in Calm     92 % 0.00 in 264 W/m2
07:53 56.1 °F 52.9 °F 30.27 in Calm     89 % 0.00 in 278 W/m2
07:58 56.5 °F 53.0 °F 30.27 in Calm     88 % 0.00 in 288 W/m2
08:03 56.8 °F 53.0 °F 30.27 in Calm   3.0 mph 87 % 0.00 in 301 W/m2
08:08 57.2 °F 52.7 °F 30.27 in Calm   3.0 mph 85 % 0.00 in 318 W/m2
08:13 57.6 °F 52.8 °F 30.27 in Calm   2.0 mph 84 % 0.00 in 334 W/m2
08:18 58.3 °F 53.1 °F 30.27 in Calm   2.0 mph 83 % 0.00 in 345 W/m2
08:23 58.8 °F 52.7 °F 30.27 in Calm   2.0 mph 80 % 0.00 in 362 W/m2
08:28 59.2 °F 53.0 °F 30.27 in Calm   2.0 mph 80 % 0.00 in 392 W/m2
08:33 59.5 °F 52.7 °F 30.27 in Calm   5.0 mph 78 % 0.00 in 276 W/m2
08:38 59.7 °F 52.5 °F 30.27 in NW 1.0 mph 5.0 mph 77 % 0.00 in 417 W/m2
08:43 60.1 °F 52.8 °F 30.27 in WNW 1.0 mph 4.0 mph 77 % 0.00 in 464 W/m2
08:48 60.6 °F 52.3 °F 30.27 in WNW 1.0 mph 5.0 mph 74 % 0.00 in 487 W/m2
08:53 60.6 °F 51.9 °F 30.27 in WNW 2.0 mph 5.0 mph 73 % 0.00 in 480 W/m2
08:58 60.6 °F 51.9 °F 30.27 in WNW 2.0 mph 5.0 mph 73 % 0.00 in 483 W/m2
09:03 61.2 °F 51.7 °F 30.27 in WNW 1.0 mph 5.0 mph 71 % 0.00 in 490 W/m2
09:08 61.3 °F 51.5 °F 30.27 in WSW 1.0 mph 5.0 mph 70 % 0.00 in 485 W/m2
09:13 61.9 °F 52.0 °F 30.27 in SSW 2.0 mph 5.0 mph 70 % 0.00 in 504 W/m2
09:18 62.1 °F 51.8 °F 30.27 in SSW 2.0 mph 5.0 mph 69 % 0.00 in 508 W/m2
09:21 62.1 °F 51.8 °F 30.27 in SSW 3.0 mph 6.0 mph 69 % 0.00 in 415 W/m2
09:26 61.9 °F 51.2 °F 30.27 in SW 3.0 mph 6.0 mph 68 % 0.00 in 415 W/m2
09:31 61.5 °F 51.3 °F 30.27 in SSW 3.0 mph 6.0 mph 69 % 0.00 in 396 W/m2
09:36 61.9 °F 51.6 °F 30.27 in SW 2.0 mph 6.0 mph 69 % 0.00 in 176 W/m2
09:37 61.9 °F 51.6 °F 30.27 in SW 1.0 mph 6.0 mph 69 % 0.00 in 172 W/m2
09:42 62.1 °F 51.8 °F 30.27 in WSW 2.0 mph 6.0 mph 69 % 0.00 in 517 W/m2
09:47 62.1 °F 51.4 °F 30.27 in WSW 2.0 mph 6.0 mph 68 % 0.00 in 156 W/m2
09:52 61.9 °F 51.6 °F 30.27 in SSW 3.0 mph 6.0 mph 69 % 0.00 in 675 W/m2
09:57 62.1 °F 51.4 °F 30.27 in SSW 2.0 mph 6.0 mph 68 % 0.00 in 555 W/m2
10:02 62.8 °F 51.7 °F 30.27 in South 1.0 mph 4.0 mph 67 % 0.00 in 747 W/m2
10:07 63.3 °F 52.2 °F 30.27 in South 1.0 mph 4.0 mph 67 % 0.00 in 798 W/m2
10:12 63.9 °F 51.9 °F 30.27 in SSW 2.0 mph 6.0 mph 65 % 0.00 in 373 W/m2
10:18 64.2 °F 51.8 °F 30.27 in SW 3.0 mph 6.0 mph 64 % 0.00 in 680 W/m2
10:23 64.6 °F 52.1 °F 30.27 in SW 2.0 mph 6.0 mph 64 % 0.00 in 782 W/m2
10:28 64.9 °F 52.0 °F 30.27 in SSW 2.0 mph 8.0 mph 63 % 0.00 in 772 W/m2
10:33 64.8 °F 51.4 °F 30.27 in SSW 3.0 mph 8.0 mph 62 % 0.00 in 413 W/m2
10:38 64.6 °F 52.1 °F 30.27 in South 2.0 mph 8.0 mph 64 % 0.00 in 814 W/m2
10:43 65.1 °F 52.2 °F 30.27 in SW 2.0 mph 6.0 mph 63 % 0.00 in 791 W/m2
10:48 65.8 °F 52.5 °F 30.26 in West 3.0 mph 7.0 mph 62 % 0.00 in 805 W/m2
10:53 66.2 °F 51.9 °F 30.26 in West 3.0 mph 7.0 mph 60 % 0.00 in 789 W/m2
10:58 65.8 °F 51.1 °F 30.26 in SSW 3.0 mph 6.0 mph 59 % 0.00 in 821 W/m2
11:03 65.5 °F 51.2 °F 30.26 in South 4.0 mph 6.0 mph 60 % 0.00 in 842 W/m2
11:08 65.8 °F 52.0 °F 30.26 in SSE 3.0 mph 6.0 mph 61 % 0.00 in 896 W/m2
11:13 66.4 °F 53.0 °F 30.26 in SSW 2.0 mph 7.0 mph 62 % 0.00 in 956 W/m2
11:18 66.9 °F 53.0 °F 30.26 in West 4.0 mph 9.0 mph 61 % 0.00 in 935 W/m2
11:23 67.3 °F 52.9 °F 30.26 in West 6.0 mph 9.0 mph 60 % 0.00 in 872 W/m2
11:28 67.5 °F 53.1 °F 30.26 in West 5.0 mph 8.0 mph 60 % 0.00 in 830 W/m2
11:33 68.2 °F 53.3 °F 30.25 in WNW 5.0 mph 8.0 mph 59 % 0.00 in 831 W/m2
11:38 68.5 °F 51.7 °F 30.25 in NW 4.0 mph 8.0 mph 55 % 0.00 in 823 W/m2
11:43 68.2 °F 51.9 °F 30.25 in West 2.0 mph 8.0 mph 56 % 0.00 in 821 W/m2
11:48 68.4 °F 52.0 °F 30.25 in WSW 2.0 mph 8.0 mph 56 % 0.00 in 833 W/m2
11:53 68.2 °F 51.9 °F 30.25 in SW 3.0 mph 9.0 mph 56 % 0.00 in 134 W/m2
11:58 67.3 °F 51.5 °F 30.25 in SW 5.0 mph 11.0 mph 57 % 0.00 in 128 W/m2
12:03 66.9 °F 52.1 °F 30.25 in SW 4.0 mph 11.0 mph 59 % 0.00 in 879 W/m2
12:08 66.9 °F 51.2 °F 30.25 in WSW 3.0 mph 9.0 mph 57 % 0.00 in 867 W/m2
12:13 67.5 °F 50.7 °F 30.24 in WSW 2.0 mph 7.0 mph 55 % 0.00 in 868 W/m2
12:18 67.8 °F 51.1 °F 30.24 in West 3.0 mph 7.0 mph 55 % 0.00 in 888 W/m2
12:23 68.4 °F 52.0 °F 30.24 in West 4.0 mph 7.0 mph 56 % 0.00 in 939 W/m2
12:28 68.7 °F 53.3 °F 30.25 in SW 3.0 mph 8.0 mph 58 % 0.00 in 1005 W/m2
12:33 69.1 °F 53.7 °F 30.25 in WSW 6.0 mph 11.0 mph 58 % 0.00 in 1035 W/m2
12:38 69.3 °F 52.4 °F 30.24 in WSW 6.0 mph 11.0 mph 55 % 0.00 in 956 W/m2
12:43 69.4 °F 53.1 °F 30.24 in West 4.0 mph 9.0 mph 56 % 0.00 in 918 W/m2
12:48 69.8 °F 53.4 °F 30.25 in WNW 4.0 mph 9.0 mph 56 % 0.00 in 1005 W/m2
12:53 70.0 °F 53.1 °F 30.24 in WNW 5.0 mph 10.0 mph 55 % 0.00 in 206 W/m2
12:58 69.4 °F 52.6 °F 30.24 in NW 5.0 mph 10.0 mph 55 % 0.00 in 251 W/m2
13:03 69.6 °F 53.2 °F 30.24 in NW 3.0 mph 8.0 mph 56 % 0.00 in 875 W/m2
13:08 69.8 °F 52.4 °F 30.24 in WSW 4.0 mph 9.0 mph 54 % 0.00 in 895 W/m2
13:13 70.2 °F 51.7 °F 30.24 in WSW 4.0 mph 9.0 mph 52 % 0.00 in 962 W/m2
13:18 70.3 °F 51.9 °F 30.24 in West 2.0 mph 7.0 mph 52 % 0.00 in 1011 W/m2
13:23 70.3 °F 50.3 °F 30.24 in WSW 3.0 mph 12.0 mph 49 % 0.00 in 244 W/m2
13:24 70.3 °F 50.3 °F 30.24 in WSW 4.0 mph 12.0 mph 49 % 0.00 in 251 W/m2
13:29 70.3 °F 50.8 °F 30.24 in WSW 6.0 mph 12.0 mph 50 % 0.00 in 998 W/m2
13:34 70.9 °F 50.2 °F 30.23 in West 5.0 mph 11.0 mph 48 % 0.00 in 988 W/m2
13:39 71.1 °F 49.2 °F 30.24 in WNW 3.0 mph 9.0 mph 46 % 0.00 in 942 W/m2
13:44 71.2 °F 50.0 °F 30.23 in West 4.0 mph 9.0 mph 47 % 0.00 in 858 W/m2
13:49 71.4 °F 51.3 °F 30.23 in West 4.0 mph 9.0 mph 49 % 0.00 in 849 W/m2
13:54 71.4 °F 51.8 °F 30.23 in West 3.0 mph 7.0 mph 50 % 0.00 in 306 W/m2
13:59 71.2 °F 52.2 °F 30.23 in WNW 4.0 mph 11.0 mph 51 % 0.00 in 294 W/m2
14:04 71.1 °F 50.9 °F 30.23 in NW 5.0 mph 11.0 mph 49 % 0.00 in 283 W/m2
14:09 70.9 °F 51.3 °F 30.22 in NW 3.0 mph 10.0 mph 50 % 0.00 in 788 W/m2
14:14 70.9 °F 50.8 °F 30.22 in NW 2.0 mph 8.0 mph 49 % 0.00 in 772 W/m2
14:19 70.9 °F 49.6 °F 30.22 in NW 2.0 mph 8.0 mph 47 % 0.00 in 884 W/m2
14:24 71.2 °F 51.1 °F 30.22 in WNW 2.0 mph 6.0 mph 49 % 0.00 in 919 W/m2
14:29 71.4 °F 50.1 °F 30.22 in West 3.0 mph 9.0 mph 47 % 0.00 in 914 W/m2
14:34 71.8 °F 51.0 °F 30.22 in West 4.0 mph 9.0 mph 48 % 0.00 in 842 W/m2
14:40 71.6 °F 50.3 °F 30.22 in WSW 6.0 mph 10.0 mph 47 % 0.00 in 916 W/m2
14:45 71.2 °F 51.1 °F 30.21 in SW 6.0 mph 10.0 mph 49 % 0.00 in 947 W/m2
14:50 71.4 °F 49.6 °F 30.21 in SW 6.0 mph 11.0 mph 46 % 0.00 in 962 W/m2
14:55 72.1 °F 50.8 °F 30.21 in WSW 6.0 mph 11.0 mph 47 % 0.00 in 953 W/m2
15:00 72.5 °F 52.2 °F 30.21 in WSW 7.0 mph 16.0 mph 49 % 0.00 in 919 W/m2
15:05 72.1 °F 52.5 °F 30.21 in WSW 8.0 mph 16.0 mph 50 % 0.00 in 921 W/m2
15:10 72.7 °F 52.4 °F 30.21 in West 8.0 mph 11.0 mph 49 % 0.00 in 888 W/m2
15:15 72.9 °F 52.6 °F 30.21 in West 7.0 mph 11.0 mph 49 % 0.00 in 807 W/m2
15:20 73.0 °F 53.3 °F 30.21 in WSW 7.0 mph 12.0 mph 50 % 0.00 in 802 W/m2
15:25 72.5 °F 52.8 °F 30.21 in WSW 8.0 mph 12.0 mph 50 % 0.00 in 712 W/m2
15:30 72.1 °F 52.5 °F 30.21 in West 7.0 mph 12.0 mph 50 % 0.00 in 183 W/m2
15:35 71.6 °F 52.5 °F 30.21 in WSW 6.0 mph 10.0 mph 51 % 0.00 in 744 W/m2
15:40 71.8 °F 52.7 °F 30.20 in WSW 7.0 mph 15.0 mph 51 % 0.00 in 149 W/m2
15:45 72.0 °F 53.9 °F 30.20 in West 8.0 mph 15.0 mph 53 % 0.00 in 726 W/m2
15:50 72.0 °F 53.9 °F 30.20 in West 9.0 mph 16.0 mph 53 % 0.00 in 680 W/m2
15:55 72.0 °F 53.4 °F 30.20 in West 9.0 mph 16.0 mph 52 % 0.00 in 677 W/m2
16:00 71.8 °F 53.2 °F 30.20 in West 8.0 mph 13.0 mph 52 % 0.00 in 670 W/m2
16:05 72.0 °F 53.9 °F 30.20 in West 8.0 mph 13.0 mph 53 % 0.00 in 657 W/m2
16:10 72.0 °F 52.8 °F 30.19 in West 8.0 mph 12.0 mph 51 % 0.00 in 661 W/m2
16:15 71.6 °F 53.0 °F 30.19 in West 7.0 mph 11.0 mph 52 % 0.00 in 135 W/m2
16:20 70.9 °F 53.4 °F 30.19 in West 7.0 mph 11.0 mph 54 % 0.00 in 190 W/m2
16:25 70.3 °F 52.9 °F 30.19 in West 7.0 mph 11.0 mph 54 % 0.00 in 207 W/m2
16:30 70.3 °F 52.9 °F 30.19 in West 8.0 mph 13.0 mph 54 % 0.00 in 155 W/m2
16:35 70.0 °F 53.6 °F 30.19 in West 9.0 mph 14.0 mph 56 % 0.00 in 527 W/m2
16:40 69.8 °F 53.9 °F 30.19 in West 9.0 mph 15.0 mph 57 % 0.00 in 601 W/m2
16:45 69.8 °F 53.4 °F 30.19 in West 9.0 mph 15.0 mph 56 % 0.00 in 128 W/m2
16:50 70.0 °F 54.0 °F 30.18 in West 8.0 mph 13.0 mph 57 % 0.00 in 543 W/m2
16:55 70.2 °F 53.7 °F 30.18 in West 8.0 mph 14.0 mph 56 % 0.00 in 555 W/m2
17:00 70.3 °F 54.4 °F 30.18 in West 9.0 mph 15.0 mph 57 % 0.00 in 543 W/m2
17:05 70.3 °F 53.9 °F 30.18 in West 8.0 mph 15.0 mph 56 % 0.00 in 536 W/m2
17:10 70.3 °F 53.9 °F 30.18 in West 9.0 mph 14.0 mph 56 % 0.00 in 568 W/m2
17:15 70.3 °F 53.9 °F 30.18 in WNW 9.0 mph 15.0 mph 56 % 0.00 in 517 W/m2
17:20 70.3 °F 53.4 °F 30.18 in WNW 9.0 mph 16.0 mph 55 % 0.00 in 473 W/m2
17:25 70.0 °F 52.6 °F 30.18 in West 9.0 mph 16.0 mph 54 % 0.00 in 135 W/m2
17:30 69.4 °F 51.6 °F 30.18 in WSW 8.0 mph 14.0 mph 53 % 0.00 in 446 W/m2
17:35 69.4 °F 51.6 °F 30.18 in West 8.0 mph 14.0 mph 53 % 0.00 in 436 W/m2
17:40 69.6 °F 52.2 °F 30.18 in West 8.0 mph 13.0 mph 54 % 0.00 in 399 W/m2
17:45 69.8 °F 52.9 °F 30.18 in West 8.0 mph 13.0 mph 55 % 0.00 in 392 W/m2
17:50 70.0 °F 52.6 °F 30.18 in West 7.0 mph 14.0 mph 54 % 0.00 in 374 W/m2
17:55 70.2 °F 52.2 °F 30.18 in WNW 8.0 mph 14.0 mph 53 % 0.00 in 355 W/m2
18:00 70.2 °F 52.2 °F 30.18 in WNW 9.0 mph 15.0 mph 53 % 0.00 in 345 W/m2
18:05 70.0 °F 52.1 °F 30.18 in WNW 9.0 mph 15.0 mph 53 % 0.00 in 332 W/m2
18:10 69.6 °F 52.2 °F 30.18 in WNW 9.0 mph 15.0 mph 54 % 0.00 in 315 W/m2
18:15 69.4 °F 52.1 °F 30.18 in West 9.0 mph 16.0 mph 54 % 0.00 in 295 W/m2
18:20 69.3 °F 52.4 °F 30.17 in West 8.0 mph 16.0 mph 55 % 0.00 in 287 W/m2
18:25 69.3 °F 52.4 °F 30.17 in West 8.0 mph 13.0 mph 55 % 0.00 in 272 W/m2
18:30 69.1 °F 52.2 °F 30.17 in West 8.0 mph 13.0 mph 55 % 0.00 in 258 W/m2
18:35 68.9 °F 52.6 °F 30.17 in West 7.0 mph 13.0 mph 56 % 0.00 in 243 W/m2
18:40 68.4 °F 51.6 °F 30.17 in West 8.0 mph 14.0 mph 55 % 0.00 in 229 W/m2
18:45 68.2 °F 52.4 °F 30.17 in WSW 9.0 mph 14.0 mph 57 % 0.00 in 214 W/m2
18:50 68.0 °F 52.2 °F 30.17 in West 8.0 mph 14.0 mph 57 % 0.00 in 202 W/m2
18:55 68.0 °F 51.7 °F 30.17 in West 8.0 mph 14.0 mph 56 % 0.00 in 192 W/m2
19:00 68.0 °F 52.2 °F 30.17 in West 8.0 mph 12.0 mph 57 % 0.00 in 178 W/m2
19:05 67.8 °F 52.0 °F 30.17 in West 8.0 mph 14.0 mph 57 % 0.00 in 165 W/m2
19:10 67.6 °F 52.3 °F 30.17 in West 8.0 mph 14.0 mph 58 % 0.00 in 149 W/m2
19:15 67.5 °F 52.2 °F 30.17 in West 7.0 mph 11.0 mph 58 % 0.00 in 137 W/m2
19:20 67.3 °F 52.0 °F 30.17 in WNW 8.0 mph 14.0 mph 58 % 0.00 in 127 W/m2
19:25 67.1 °F 52.3 °F 30.17 in WNW 8.0 mph 14.0 mph 59 % 0.00 in 118 W/m2
19:30 66.9 °F 52.6 °F 30.17 in WNW 8.0 mph 13.0 mph 60 % 0.00 in 105 W/m2
19:35 66.6 °F 52.7 °F 30.17 in WNW 8.0 mph 13.0 mph 61 % 0.00 in 91 W/m2
19:40 66.4 °F 53.0 °F 30.16 in WNW 6.0 mph 13.0 mph 62 % 0.00 in 81 W/m2
19:45 66.0 °F 52.6 °F 30.16 in WNW 6.0 mph 11.0 mph 62 % 0.00 in 70 W/m2
19:50 65.7 °F 52.7 °F 30.17 in WNW 7.0 mph 13.0 mph 63 % 0.00 in 44 W/m2
19:55 64.9 °F 52.5 °F 30.17 in WNW 7.0 mph 13.0 mph 64 % 0.00 in 32 W/m2
20:00 64.6 °F 53.0 °F 30.17 in WNW 6.0 mph 12.0 mph 66 % 0.00 in 44 W/m2
20:05 64.2 °F 52.6 °F 30.17 in WNW 5.0 mph 10.0 mph 66 % 0.00 in 33 W/m2
20:11 63.9 °F 52.7 °F 30.17 in WNW 6.0 mph 10.0 mph 67 % 0.00 in 19 W/m2
20:16 63.3 °F 52.2 °F 30.16 in WNW 6.0 mph 10.0 mph 67 % 0.00 in 14 W/m2
20:21 63.1 °F 52.4 °F 30.16 in WNW 5.0 mph 8.0 mph 68 % 0.00 in 12 W/m2
20:26 62.8 °F 52.5 °F 30.17 in WNW 6.0 mph 9.0 mph 69 % 0.00 in 11 W/m2
20:31 62.4 °F 52.1 °F 30.17 in WNW 6.0 mph 10.0 mph 69 % 0.00 in 9 W/m2
20:36 62.1 °F 52.2 °F 30.17 in WNW 6.0 mph 10.0 mph 70 % 0.00 in 5 W/m2
20:41 61.7 °F 52.2 °F 30.17 in WNW 6.0 mph 10.0 mph 71 % 0.00 in 0 W/m2
20:46 61.3 °F 51.9 °F 30.17 in WNW 6.0 mph 10.0 mph 71 % 0.00 in 0 W/m2
20:51 61.0 °F 51.1 °F 30.17 in WNW 6.0 mph 10.0 mph 70 % 0.00 in 0 W/m2
20:56 60.6 °F 50.8 °F 30.17 in WNW 6.0 mph 10.0 mph 70 % 0.00 in 0 W/m2
21:01 60.4 °F 50.6 °F 30.17 in WNW 6.0 mph 10.0 mph 70 % 0.00 in 0 W/m2
21:06 60.1 °F 50.6 °F 30.17 in WNW 6.0 mph 9.0 mph 71 % 0.00 in 0 W/m2
21:11 59.7 °F 50.3 °F 30.18 in WNW 5.0 mph 8.0 mph 71 % 0.00 in 0 W/m2
21:17 59.4 °F 50.0 °F 30.17 in WNW 5.0 mph 10.0 mph 71 % 0.00 in 0 W/m2
21:22 59.2 °F 50.2 °F 30.18 in WNW 4.0 mph 10.0 mph 72 % 0.00 in 0 W/m2
21:27 58.8 °F 49.8 °F 30.18 in West 3.0 mph 6.0 mph 72 % 0.00 in 0 W/m2
21:32 58.5 °F 49.5 °F 30.18 in West 3.0 mph 5.0 mph 72 % 0.00 in 0 W/m2
21:37 58.3 °F 49.7 °F 30.18 in West 3.0 mph 5.0 mph 73 % 0.00 in 0 W/m2
21:42 57.9 °F 49.7 °F 30.18 in West 2.0 mph 5.0 mph 74 % 0.00 in 0 W/m2
21:47 57.6 °F 49.7 °F 30.18 in West 2.0 mph 6.0 mph 75 % 0.00 in 0 W/m2
21:52 57.2 °F 49.7 °F 30.18 in West 4.0 mph 7.0 mph 76 % 0.00 in 0 W/m2
21:57 56.8 °F 49.4 °F 30.18 in WNW 5.0 mph 8.0 mph 76 % 0.00 in 0 W/m2
22:02 56.7 °F 49.5 °F 30.18 in WNW 5.0 mph 8.0 mph 77 % 0.00 in 0 W/m2
22:07 56.5 °F 49.4 °F 30.18 in WNW 5.0 mph 7.0 mph 77 % 0.00 in 0 W/m2
22:12 56.1 °F 49.4 °F 30.18 in WNW 4.0 mph 8.0 mph 78 % 0.00 in 0 W/m2
22:17 55.9 °F 49.2 °F 30.18 in WNW 4.0 mph 8.0 mph 78 % 0.00 in 0 W/m2
22:22 55.8 °F 49.0 °F 30.18 in WNW 3.0 mph 6.0 mph 78 % 0.00 in 0 W/m2
22:27 55.6 °F 49.2 °F 30.18 in WNW 3.0 mph 6.0 mph 79 % 0.00 in 0 W/m2
22:28 55.6 °F 49.2 °F 30.18 in WNW 3.0 mph 6.0 mph 79 % 0.00 in 0 W/m2
22:33 55.4 °F 49.0 °F 30.18 in WNW 3.0 mph 6.0 mph 79 % 0.00 in 0 W/m2
22:38 55.2 °F 48.8 °F 30.18 in WNW 2.0 mph 5.0 mph 79 % 0.00 in 0 W/m2
22:43 55.0 °F 48.6 °F 30.18 in WNW 1.0 mph 5.0 mph 79 % 0.00 in 0 W/m2
22:48 54.9 °F 48.8 °F 30.18 in Calm   4.0 mph 80 % 0.00 in 0 W/m2
22:53 54.7 °F 48.6 °F 30.18 in Calm   2.0 mph 80 % 0.00 in 0 W/m2
22:58 54.3 °F 48.3 °F 30.18 in Calm   1.0 mph 80 % 0.00 in 0 W/m2
23:03 54.1 °F 48.4 °F 30.18 in Calm   1.0 mph 81 % 0.00 in 0 W/m2
23:08 54.1 °F 48.4 °F 30.18 in Calm   2.0 mph 81 % 0.00 in 0 W/m2
23:13 54.0 °F 48.6 °F 30.18 in WNW 1.0 mph 5.0 mph 82 % 0.00 in 0 W/m2
23:18 54.0 °F 48.6 °F 30.18 in WNW 2.0 mph 5.0 mph 82 % 0.00 in 0 W/m2
23:23 53.8 °F 48.4 °F 30.18 in WNW 1.0 mph 5.0 mph 82 % 0.00 in 0 W/m2
23:24 53.8 °F 48.4 °F 30.18 in WNW 1.0 mph 4.0 mph 82 % 0.00 in 0 W/m2
23:29 53.8 °F 48.7 °F 30.18 in Calm   3.0 mph 83 % 0.00 in 0 W/m2
23:34 53.8 °F 48.7 °F 30.18 in Calm   2.0 mph 83 % 0.00 in 0 W/m2
23:39 53.4 °F 48.1 °F 30.17 in Calm     82 % 0.00 in 0 W/m2
23:44 53.2 °F 48.2 °F 30.17 in Calm     83 % 0.00 in 0 W/m2
23:49 52.9 °F 47.9 °F 30.17 in Calm     83 % 0.00 in 0 W/m2
23:54 52.5 °F 47.8 °F 30.17 in Calm     84 % 0.00 in 0 W/m2
23:59 52.3 °F 47.6 °F 30.17 in Calm     84 % 0.00 in 0 W/m2
Delerius-Weather
Compliments of Weather Underground - 2.25 mb

Data updates at regular intervals.